Latest Weather Observations for Port Augusta

IDS60801

Issued at 1:11 pm CST Thursday 28 May 2020 (issued every 10 minutes, with the page automatically refreshed every 10 minutes)

About weather observations | Map of weather stations | Latest weather observations for SA | Other Formats
Station Details ID: 018201 Name: PORT AUGUSTA AERO Lat: -32.51 Lon: 137.72 Height: 13.97 m
Data from the previous 72 hours. | See also: Recent months at Port Augusta
Date/Time
CST
Temp
°C
App
Temp
°C
Dew
Point
°C
Rel
Hum
%
Delta-T
°C
Wind Press
QNH
hPa
Press
MSL
hPa
Rain since
9am
mm
Dir  Spd
km/h
Gust
km/h
Spd
kts
Gust
kts
28/01:00pm 18.8 13.9 5.3 41 6.5 W 20 30 11 16 1023.6 1023.6 0.0
28/12:30pm 18.8 15.2 4.9 40 6.7 WNW 13 20 7 11 1023.9 1023.9 0.0
28/12:00pm 17.8 14.2 5.1 43 6.1 WSW 13 22 7 12 1024.3 1024.3 0.0
28/11:30am 17.8 15.7 8.4 54 4.8 NW 9 15 5 8 1024.6 1024.6 0.0
28/11:00am 17.6 16.3 10.0 61 4.0 NW 7 11 4 6 1025.0 1025.0 0.0
28/10:30am 16.1 14.8 9.8 66 3.3 WSW 7 9 4 5 1025.1 1025.1 0.0
28/10:00am 15.5 14.2 10.1 70 2.8 SW 7 11 4 6 1025.1 1025.1 0.0
28/09:30am 14.3 13.7 10.5 78 2.0 WSW 4 9 2 5 1025.0 1025.0 0.0
28/09:00am 13.6 12.1 10.4 81 1.7 SW 9 11 5 6 1024.9 1024.9 0.0
28/08:30am 13.1 11.6 10.5 84 1.3 WSW 9 11 5 6 1024.7 1024.7 0.0
28/08:00am 11.4 10.2 9.5 88 1.0 WNW 6 7 3 4 1024.3 1024.3 0.0
28/07:30am 10.0 8.5 8.6 91 0.7 WNW 6 9 3 5 1023.8 1023.8 0.0
28/07:00am 9.9 8.4 8.5 91 0.7 NNW 6 7 3 4 1023.4 1023.4 0.0
28/06:30am 8.5 7.3 6.5 87 0.9 WSW 2 9 1 5 1023.1 1023.1 0.0
28/06:00am 9.9 7.6 7.5 85 1.1 SW 9 11 5 6 1022.5 1022.5 0.0
28/05:30am 11.0 8.5 8.2 83 1.4 SW 11 13 6 7 1022.4 1022.4 0.0
28/05:00am 10.0 7.4 6.3 78 1.7 W 9 11 5 6 1022.3 1022.3 0.0
28/04:30am 10.1 8.0 6.6 79 1.6 NW 7 9 4 5 1022.2 1022.2 0.0
28/04:00am 9.3 6.7 5.9 79 1.6 NW 9 11 5 6 1022.1 1022.1 0.0
28/03:30am 8.7 7.6 5.3 79 1.5 CALM 0 0 0 0 1021.9 1021.9 0.0
28/03:00am 8.8 7.3 5.2 78 1.6 WSW 2 7 1 4 1021.8 1021.8 0.0
28/02:30am 9.3 7.1 5.1 75 1.9 WSW 6 7 3 4 1021.7 1021.7 0.0
28/02:00am 9.0 6.7 5.0 76 1.8 WSW 6 7 3 4 1021.7 1021.7 0.0
28/01:30am 9.2 6.8 5.4 77 1.7 NW 7 9 4 5 1021.8 1021.8 0.0
28/01:00am 9.5 6.7 5.3 75 1.9 N 9 11 5 6 1021.8 1021.8 0.0
28/12:30am 9.9 7.1 5.3 73 2.1 N 9 9 5 5 1021.6 1021.6 0.0
28/12:00am 9.5 6.9 4.3 70 2.3 N 7 9 4 5 1021.5 1021.5 0.0
 
Date/Time
CST
Temp
°C
App
Temp
°C
Dew
Point
°C
Rel
Hum
%
Delta-T
°C
Wind Press
QNH
hPa
Press
MSL
hPa
Rain since
9am
mm
Dir  Spd
km/h
Gust
km/h
Spd
kts
Gust
kts
27/11:30pm 9.4 7.3 4.0 69 2.4 WNW 4 7 2 4 1021.5 1021.5 0.0
27/11:00pm 9.5 6.9 4.3 70 2.3 NW 7 9 4 5 1021.4 1021.4 0.0
27/10:30pm 9.9 6.2 4.7 70 2.3 N 13 13 7 7 1021.2 1021.2 0.0
27/10:00pm 10.3 7.1 4.9 69 2.4 N 11 13 6 7 1021.1 1021.1 0.0
27/09:30pm 9.6 6.6 4.2 69 2.4 N 9 11 5 6 1021.0 1021.0 0.0
27/09:00pm 9.7 8.3 3.7 66 2.6 CALM 0 0 0 0 1020.7 1020.7 0.0
27/08:30pm 10.9 8.8 3.7 61 3.2 W 4 6 2 3 1020.7 1020.7 0.0
27/08:00pm 11.3 8.6 3.8 60 3.3 WNW 7 9 4 5 1020.4 1020.4 0.0
27/07:30pm 11.5 8.1 4.0 60 3.3 WSW 11 13 6 7 1020.0 1020.0 0.0
27/07:00pm 13.0 10.3 3.7 53 4.2 NW 7 9 4 5 1019.8 1019.8 0.0
27/06:30pm 14.6 10.8 3.7 48 5.0 NW 13 15 7 8 1019.4 1019.4 0.0
27/06:00pm 15.3 11.5 3.8 46 5.3 NW 13 15 7 8 1019.1 1019.1 0.0
27/05:30pm 17.5 12.9 3.8 40 6.4 NW 17 19 9 10 1018.8 1018.8 0.0
27/05:00pm 19.2 15.1 4.2 37 7.2 NW 15 17 8 9 1018.6 1018.6 0.0
27/04:30pm 19.7 16.0 6.1 41 6.7 N 15 20 8 11 1018.4 1018.4 0.0
27/04:00pm 20.0 16.6 6.0 40 7.0 NNW 13 19 7 10 1018.4 1018.4 0.0
27/03:30pm 20.2 16.8 5.8 39 7.1 NNW 13 19 7 10 1018.5 1018.5 0.0
27/03:00pm 20.2 17.3 6.5 41 6.9 N 11 20 6 11 1018.6 1018.6 0.0
27/02:30pm 19.6 16.0 6.7 43 6.5 N 15 20 8 11 1018.7 1018.7 0.0
27/02:00pm 18.9 14.8 6.4 44 6.2 NNE 17 22 9 12 1019.0 1019.0 0.0
27/01:30pm 19.4 16.1 6.5 43 6.4 N 13 20 7 11 1019.4 1019.4 0.0
27/01:00pm 18.8 14.9 5.3 41 6.6 N 15 22 8 12 1019.8 1019.8 0.0
27/12:30pm 18.4 14.5 5.3 42 6.3 N 15 20 8 11 1020.2 1020.2 0.0
27/12:00pm 17.7 13.7 5.0 43 6.1 N 15 24 8 13 1020.7 1020.7 0.0
27/11:30am 16.9 12.4 4.3 43 5.9 NNW 17 24 9 13 1021.1 1021.1 0.0
27/11:00am 16.2 11.5 3.3 42 5.9 NNW 17 24 9 13 1021.6 1021.6 0.0
27/10:30am 15.9 10.7 3.4 43 5.7 N 20 26 11 14 1021.8 1021.8 0.0
27/10:00am 15.3 9.3 3.1 44 5.5 N 24 30 13 16 1021.9 1021.9 0.0
27/09:30am 14.3 8.3 3.2 47 5.0 N 24 30 13 16 1022.0 1022.0 0.0
27/09:00am 13.5 9.3 3.8 52 4.4 NW 15 19 8 10 1022.0 1022.0 0.0
27/08:30am 11.3 8.2 3.8 60 3.3 WNW 9 11 5 6 1021.9 1021.9 0.0
27/08:00am 10.6 6.7 3.4 61 3.1 NW 13 17 7 9 1021.5 1021.5 0.0
27/07:30am 9.7 6.2 3.7 66 2.6 W 11 17 6 9 1021.2 1021.2 0.0
27/07:00am 8.8 5.4 4.0 72 2.1 NW 11 13 6 7 1020.7 1020.7 0.0
27/06:30am 9.0 6.0 4.2 72 2.1 WSW 9 11 5 6 1020.6 1020.6 0.0
27/06:00am 8.0 4.9 3.8 75 1.8 W 9 11 5 6 1020.1 1020.1 0.0
27/05:30am 8.1 4.6 3.4 72 2.0 W 11 13 6 7 1019.7 1019.7 0.0
27/05:00am 7.6 4.7 2.7 71 2.0 WNW 7 9 4 5 1019.4 1019.4 0.0
27/04:30am 8.8 4.9 3.2 68 2.4 W 13 17 7 9 1019.4 1019.4 0.0
27/04:00am 9.3 6.4 2.6 63 2.8 NW 7 11 4 6 1019.1 1019.1 0.0
27/03:30am 10.5 7.0 3.3 61 3.1 NW 11 13 6 7 1019.3 1019.3 0.0
27/03:00am 10.2 6.4 3.7 64 2.8 NNW 13 15 7 8 1019.2 1019.2 0.0
27/02:30am 11.4 6.8 3.7 59 3.4 NNW 17 19 9 10 1019.1 1019.1 0.0
27/02:00am 12.1 7.5 3.6 56 3.8 N 17 20 9 11 1019.3 1019.3 0.0
27/01:30am 12.3 7.7 3.5 55 3.9 N 17 24 9 13 1019.4 1019.4 0.0
27/01:00am 12.7 8.1 3.6 54 4.1 N 17 20 9 11 1019.4 1019.4 0.0
27/12:30am 13.1 8.8 3.2 51 4.4 N 15 19 8 10 1019.5 1019.5 0.0
27/12:00am 13.2 8.4 2.7 49 4.6 N 17 19 9 10 1019.9 1019.9 0.0
 
Date/Time
CST
Temp
°C
App
Temp
°C
Dew
Point
°C
Rel
Hum
%
Delta-T
°C
Wind Press
QNH
hPa
Press
MSL
hPa
Rain since
9am
mm
Dir  Spd
km/h
Gust
km/h
Spd
kts
Gust
kts
26/11:30pm 13.1 8.7 2.9 50 4.5 N 15 19 8 10 1019.8 1019.8 0.0
26/11:00pm 12.8 8.4 2.9 51 4.4 NNE 15 19 8 10 1019.7 1019.7 0.0
26/10:30pm 12.8 8.4 2.9 51 4.4 N 15 20 8 11 1019.7 1019.7 0.0
26/10:00pm 13.3 9.0 3.4 51 4.4 N 15 17 8 9 1019.6 1019.6 0.0
26/09:30pm 13.7 9.0 3.2 49 4.7 N 17 20 9 11 1019.5 1019.5 0.0
26/09:00pm 14.0 9.3 2.9 47 4.9 NNE 17 22 9 12 1019.3 1019.3 0.0
26/08:30pm 14.0 9.3 2.9 47 4.9 NNE 17 20 9 11 1019.2 1019.2 0.0
26/08:00pm 14.3 9.2 2.9 46 5.1 NNE 19 24 10 13 1018.9 1018.9 0.0
26/07:30pm 14.4 9.1 3.2 47 5.0 N 20 28 11 15 1018.7 1018.7 0.0
26/07:00pm 14.9 8.7 2.4 43 5.6 N 24 30 13 16 1018.4 1018.4 0.0
26/06:30pm 14.9 9.1 2.4 43 5.5 N 22 28 12 15 1018.0 1018.0 0.0
26/06:00pm 15.2 9.0 2.4 42 5.7 N 24 32 13 17 1017.4 1017.3 0.0
26/05:30pm 15.1 9.0 2.6 43 5.6 N 24 32 13 17 1017.1 1017.0 0.0
26/05:00pm 15.6 8.6 2.1 40 6.0 N 28 41 15 22 1017.1 1017.0 0.0
26/04:30pm 15.8 9.2 2.2 40 6.1 N 26 37 14 20 1017.3 1017.2 0.0
26/04:00pm 15.9 8.9 2.0 39 6.2 N 28 39 15 21 1017.2 1017.1 0.0
26/03:30pm 16.3 9.4 2.3 39 6.3 N 28 35 15 19 1017.2 1017.1 0.0
26/03:00pm 15.9 8.2 2.3 40 6.1 N 32 39 17 21 1016.3 1016.2 0.0
26/02:30pm 15.7 7.8 2.5 41 5.9 N 33 43 18 23 1017.5 1017.5 0.0
26/02:00pm 16.5 8.3 2.9 40 6.2 NNE 35 46 19 25 1017.6 1017.6 0.0
26/01:30pm 15.6 7.0 2.7 42 5.8 N 37 48 20 26 1018.3 1018.3 0.0
26/01:00pm 15.6 7.8 3.1 43 5.7 N 33 43 18 23 1018.3 1018.3 0.0
26/12:30pm 15.9 8.4 3.4 43 5.7 N 32 41 17 22 1019.0 1019.0 0.0
26/12:00pm 14.8 7.0 3.0 45 5.3 N 33 44 18 24 1020.0 1020.0 0.0
26/11:30am 14.3 6.6 3.2 47 5.0 N 33 44 18 24 1020.3 1020.3 0.0
26/11:00am 14.2 7.1 3.4 48 4.9 N 30 41 16 22 1020.7 1020.7 0.0
26/10:30am 13.1 6.3 3.2 51 4.4 N 28 39 15 21 1020.6 1020.6 0.0
26/10:00am 12.8 6.8 3.2 52 4.3 N 24 33 13 18 1021.3 1021.3 0.0
26/09:30am 10.9 5.3 3.2 59 3.3 N 22 30 12 16 1021.3 1021.3 0.0
26/09:00am 11.4 6.2 3.7 59 3.4 N 20 28 11 15 1021.5 1021.5 0.0
26/08:30am 9.4 4.3 3.2 65 2.7 N 19 26 10 14 1021.6 1021.6 0.0
26/08:00am 9.2 4.1 3.0 65 2.7 N 19 24 10 13 1021.4 1021.4 0.0
26/07:30am 8.5 3.4 2.9 68 2.4 NNW 19 22 10 12 1021.4 1021.4 0.0
26/07:00am 8.7 3.4 3.1 68 2.4 N 20 26 11 14 1021.0 1021.0 0.0
26/06:30am 8.8 4.1 3.0 67 2.5 N 17 20 9 11 1020.9 1020.9 0.0
26/06:00am 9.4 4.8 3.6 67 2.5 N 17 22 9 12 1020.3 1020.3 0.0
26/05:30am 8.3 4.5 4.1 75 1.8 N 13 15 7 8 1020.7 1020.7 0.0
26/05:00am 7.7 5.7 4.3 79 1.5 NNW 4 11 2 6 1020.7 1020.7 0.0
26/04:30am 8.4 7.1 4.2 75 1.8 CALM 0 6 0 3 1020.9 1020.9 0.0
26/04:00am 8.2 5.2 4.2 76 1.7 W 9 13 5 7 1021.0 1021.0 0.0
26/03:30am 8.2 5.3 4.4 77 1.7 WSW 9 11 5 6 1020.6 1020.6 0.0
26/03:00am 7.8 4.5 4.4 79 1.5 SW 11 17 6 9 1020.9 1020.9 0.0
26/02:30am 8.4 7.2 4.6 77 1.7 CALM 0 0 0 0 1020.6 1020.6 0.0
26/02:00am 8.4 6.3 4.0 74 1.9 WSW 4 9 2 5 1020.6 1020.6 0.0
26/01:30am 8.7 6.6 4.1 73 2.0 NE 4 11 2 6 1020.8 1020.8 0.0
26/01:00am 8.9 5.1 3.9 71 2.2 ENE 13 15 7 8 1020.7 1020.7 0.0
26/12:30am 9.2 4.9 3.4 67 2.5 NE 15 17 8 9 1020.7 1020.7 0.0
26/12:00am 9.5 5.3 3.7 67 2.5 NE 15 20 8 11 1020.9 1020.9 0.0
 
Date/Time
CST
Temp
°C
App
Temp
°C
Dew
Point
°C
Rel
Hum
%
Delta-T
°C
Wind Press
QNH
hPa
Press
MSL
hPa
Rain since
9am
mm
Dir  Spd
km/h
Gust
km/h
Spd
kts
Gust
kts
25/11:30pm 8.8 4.3 4.2 73 2.0 NE 17 20 9 11 1021.2 1021.2 0.0
25/11:00pm 8.9 6.3 4.3 73 2.0 NE 7 9 4 5 1022.1 1022.1 0.0
25/10:30pm 9.2 4.8 4.6 73 2.0 NE 17 19 9 10 1021.6 1021.6 0.0
25/10:00pm 7.6 3.9 4.6 81 1.3 NE 13 15 7 8 1021.9 1021.9 0.0
25/09:30pm 7.0 4.0 4.1 82 1.2 NNE 9 13 5 7 1022.1 1022.1 0.0
25/09:00pm 8.0 5.6 4.4 78 1.6 NW 6 7 3 4 1021.9 1021.9 0.0
25/08:30pm 9.2 6.5 5.4 77 1.7 NW 9 11 5 6 1021.1 1021.1 0.0
25/08:00pm 8.7 6.2 4.5 75 1.9 N 7 9 4 5 1020.8 1020.8 0.0
25/07:30pm 9.3 6.8 4.9 74 2.0 NE 7 11 4 6 1020.7 1020.7 0.0
25/07:00pm 9.6 6.4 5.0 73 2.1 E 11 13 6 7 1020.9 1020.9 0.0
25/06:30pm 11.1 7.9 5.0 66 2.8 E 11 13 6 7 1020.9 1020.9 0.0
25/06:00pm 12.0 9.4 4.0 58 3.6 NE 7 9 4 5 1021.1 1021.1 0.0
25/05:30pm 12.3 9.3 4.3 58 3.6 NNE 9 9 5 5 1021.1 1021.1 0.0
25/05:00pm 13.7 10.2 3.5 50 4.6 NNE 11 15 6 8 1021.0 1021.0 0.0
25/04:30pm 14.6 10.6 2.8 45 5.3 NNW 13 17 7 9 1021.1 1021.1 0.0
25/04:00pm 14.3 10.3 2.9 46 5.1 N 13 17 7 9 1021.1 1021.1 0.0
25/03:30pm 14.8 10.9 3.3 46 5.2 N 13 19 7 10 1021.6 1021.6 0.0
25/03:00pm 14.5 10.5 3.0 46 5.1 N 13 19 7 10 1021.7 1021.7 0.0
25/02:30pm 15.1 10.8 3.0 44 5.4 N 15 22 8 12 1022.1 1022.1 0.0
25/02:00pm 15.5 11.6 3.3 44 5.6 NNE 13 22 7 12 1022.3 1022.3 0.0
25/01:30pm 15.1 11.4 4.2 48 5.0 NNE 13 22 7 12 1022.8 1022.8 0.0

Other formats

Comma delimited format used in spreadsheet applications
http://www.bom.gov.au/fwo/IDS60801/IDS60801.95666.axf

JavaScript Object Notation format (JSON) in row-major order
http://www.bom.gov.au/fwo/IDS60801/IDS60801.95666.json

Data quality

Most of these data are generated automatically and are frequently updated. Quality checks on data are not normally performed. It is possible for incorrect values to appear. Refer to information at About Latest Weather Observations and please check the disclaimer before using these data.